Аэропорт: Елизово. Петропавловск-Камчатский

ICAO: UHPP

METAR:
2024-07-24 14:16:00
UHPP 241416Z 19003MPS 4900 -SHRA BR SCT004 OVC021CB 10/10 Q1011 R16R/CLRD60 NOSIG RMK QFE755/1007
TAF:
2024-07-24 13:38:00
TAF UHPP 241338Z 2415/2521 21003MPS 4000 -RA BR BKN004 OVC020 
  TEMPO 2415/2421 0500 DZ FG VV001 
  FM242100 15005G12MPS 9999 BKN010 OVC020CB 
  TEMPO 2421/2508 2000 SHRA BKN004 OVC012CB 
  TEMPO 2508/2521 0700 FG VV002